Time;durP1;ratioP1;P1;durP2;ratioP2;P2;SDS_P1;SDS_P2;PMS_P1;PMS_P2;Temp;Humidity;BMP_temperature;BMP_pressure;BME280_temperature;BME280_humidity;BME280_pressure;Samples;Min_cycle;Max_cycle;Signal;HPM_P1;HPM_P2
2024/01/25 00:02:18;;;;;;;;;4.50;3.50;;;;;7.64;79.83;99790.53;6294771;20;1817085;-43
2024/01/25 00:04:47;;;;;;;;;4.00;3.00;;;;;7.76;78.81;99793.53;6325462;20;1812668;-42
2024/01/25 00:07:15;;;;;;;;;5.00;3.50;;;;;7.85;77.65;99793.97;6311576;20;2735820;-43
2024/01/25 00:09:43;;;;;;;;;4.50;3.00;;;;;7.84;78.06;99791.34;6308000;20;2751345;-44
2024/01/25 00:12:11;;;;;;;;;6.00;4.00;;;;;7.66;78.69;99788.66;6276634;20;2741001;-43
2024/01/25 00:14:39;;;;;;;;;4.75;4.75;;;;;7.68;77.96;99786.75;6291772;20;1810195;-42
2024/01/25 00:17:07;;;;;;;;;5.00;3.00;;;;;7.80;77.54;99779.97;6310309;20;2748769;-42
2024/01/25 00:19:36;;;;;;;;;4.75;3.50;;;;;7.84;76.74;99792.22;6292212;20;1807763;-42
2024/01/25 00:22:05;;;;;;;;;3.00;2.50;;;;;7.86;76.84;99789.47;6322056;20;1817076;-43
2024/01/25 00:24:33;;;;;;;;;8.00;5.00;;;;;7.62;77.67;99787.06;6324159;20;1816480;-42
2024/01/25 00:27:02;;;;;;;;;5.00;3.00;;;;;7.85;76.79;99796.66;6309046;20;2751364;-43
2024/01/25 00:29:31;;;;;;;;;6.00;3.00;;;;;7.97;75.32;99779.13;6278233;20;2756661;-44
2024/01/25 00:31:59;;;;;;;;;6.00;4.00;;;;;7.93;75.47;99782.91;6275485;20;2737755;-42
2024/01/25 00:34:28;;;;;;;;;7.00;4.00;;;;;8.00;74.67;99780.78;6322698;20;1814985;-45
2024/01/25 00:36:57;;;;;;;;;4.00;3.00;;;;;8.04;74.40;99782.38;6324311;20;1816078;-42
2024/01/25 00:39:25;;;;;;;;;4.00;2.00;;;;;7.96;74.84;99795.25;6304287;20;2749252;-42
2024/01/25 00:42:05;;;;;;;;;5.00;2.00;;;;;8.08;73.53;99783.94;6276204;20;2754539;-44
2024/01/25 00:44:34;;;;;;;;;7.00;2.00;;;;;8.10;72.84;99774.91;6276314;20;2744132;-43
2024/01/25 00:47:02;;;;;;;;;4.00;2.50;;;;;8.14;72.88;99784.50;6275753;20;2756618;-42
2024/01/25 00:49:35;;;;;;;;;3.00;2.43;;;;;8.43;70.82;99779.53;6318761;20;1799295;-44
2024/01/25 00:52:04;;;;;;;;;3.50;1.00;;;;;8.45;70.44;99782.09;6312559;20;2475292;-42
2024/01/25 00:54:33;;;;;;;;;2.00;2.00;;;;;8.37;70.78;99771.75;6308766;20;2738870;-45
2024/01/25 00:57:01;;;;;;;;;4.00;2.50;;;;;8.54;70.06;99778.97;6312680;20;2754479;-44
2024/01/25 00:59:29;;;;;;;;;2.50;2.50;;;;;8.43;70.56;99787.56;6279750;20;2754640;-43
2024/01/25 01:01:59;;;;;;;;;3.50;1.50;;;;;8.41;70.00;99781.41;6298678;20;1809772;-43
2024/01/25 01:04:30;;;;;;;;;6.00;3.00;;;;;8.50;69.47;99794.31;6310227;20;2756517;-44
2024/01/25 01:07:14;;;;;;;;;2.50;2.00;;;;;8.52;69.05;99779.03;6300242;20;1803523;-44
2024/01/25 01:09:43;;;;;;;;;8.50;2.75;;;;;8.22;70.64;99769.91;6331294;20;1817069;-43
2024/01/25 01:12:11;;;;;;;;;7.00;3.00;;;;;8.52;68.48;99756.78;6312577;20;2755616;-47
2024/01/25 01:14:40;;;;;;;;;2.75;1.00;;;;;8.48;68.83;99757.91;6296158;20;1805495;-46
2024/01/25 01:17:08;;;;;;;;;2.00;2.00;;;;;8.52;68.72;99757.63;6330995;20;1811812;-49
2024/01/25 01:19:37;;;;;;;;;3.50;1.00;;;;;8.49;68.69;99759.63;6326143;20;1808127;-44
2024/01/25 01:22:05;;;;;;;;;7.00;2.50;;;;;8.36;69.27;99749.50;6311042;20;2752376;-44
2024/01/25 01:24:33;;;;;;;;;3.00;3.00;;;;;8.58;68.44;99761.78;6279713;20;2750317;-47
2024/01/25 01:27:02;;;;;;;;;0.00;0.00;;;;;8.26;70.12;99768.78;6295741;20;1808181;-46
2024/01/25 01:29:30;;;;;;;;;5.50;1.75;;;;;8.32;69.53;99766.66;6330569;20;1802873;-44
2024/01/25 01:31:59;;;;;;;;;2.00;2.00;;;;;8.18;70.61;99762.97;6326263;20;1816019;-43
2024/01/25 01:34:27;;;;;;;;;4.25;2.00;;;;;8.49;68.96;99749.78;6327642;20;1825526;-47
2024/01/25 01:36:56;;;;;;;;;2.25;2.25;;;;;8.32;69.79;99755.09;6329416;20;1816784;-42
2024/01/25 01:39:26;;;;;;;;;2.00;1.25;;;;;8.25;70.01;99754.53;6325061;20;1803400;-42
2024/01/25 01:41:54;;;;;;;;;3.00;1.50;;;;;8.32;69.33;99745.28;6328848;20;1803560;-42
2024/01/25 01:44:22;;;;;;;;;4.00;1.00;;;;;8.38;68.48;99738.75;6328507;20;1810783;-45
2024/01/25 01:46:51;;;;;;;;;2.75;1.75;;;;;8.29;69.82;99736.53;6297776;20;1810761;-43
2024/01/25 01:49:20;;;;;;;;;3.25;2.25;;;;;8.22;69.11;99738.66;6325102;20;1810770;-44
2024/01/25 01:51:49;;;;;;;;;3.25;2.00;;;;;8.22;69.18;99727.09;6326528;20;1803440;-43
2024/01/25 01:54:17;;;;;;;;;6.00;1.00;;;;;8.26;68.27;99744.72;6309339;20;2734641;-44
2024/01/25 01:56:45;;;;;;;;;3.00;2.00;;;;;8.32;67.96;99731.00;6331339;20;1810351;-44
2024/01/25 01:59:16;;;;;;;;;0.00;0.00;;;;;8.35;67.49;99728.19;6325631;20;1803515;-42
2024/01/25 02:01:45;;;;;;;;;5.50;1.00;;;;;8.34;68.19;99726.44;6328271;20;1806636;-44
2024/01/25 02:04:13;;;;;;;;;2.50;1.00;;;;;8.60;70.24;99726.94;6324772;20;1806688;-43
2024/01/25 02:06:45;;;;;;;;;3.00;2.00;;;;;8.40;67.69;99731.53;6355281;20;2574355;-44
2024/01/25 02:09:14;;;;;;;;;6.25;3.50;;;;;8.13;67.55;99733.75;6300444;20;1822861;-43
2024/01/25 02:11:43;;;;;;;;;2.50;2.00;;;;;8.12;69.28;99732.03;6329959;20;1809759;-45
2024/01/25 02:14:11;;;;;;;;;3.00;2.00;;;;;8.60;69.47;99735.81;6312231;20;2730501;-44
2024/01/25 02:16:45;;;;;;;;;5.50;2.50;;;;;8.38;65.88;99722.69;6327255;20;1811844;-43
2024/01/25 02:19:13;;;;;;;;;3.00;3.00;;;;;8.40;66.20;99725.28;6306032;20;2752485;-44
2024/01/25 02:21:42;;;;;;;;;6.50;3.50;;;;;8.19;67.47;99716.53;6294883;20;1814963;-45
2024/01/25 02:24:09;;;;;;;;;5.00;2.50;;;;;8.13;68.04;99718.56;6310211;20;2746105;-45
2024/01/25 02:26:38;;;;;;;;;4.00;3.00;;;;;8.25;66.73;99721.59;6296833;20;1806283;-43
2024/01/25 02:29:08;;;;;;;;;6.25;4.00;;;;;8.35;66.21;99709.47;6330407;20;1812925;-43
2024/01/25 02:31:35;;;;;;;;;5.50;2.00;;;;;8.41;65.50;99717.19;6311335;20;2750302;-43
2024/01/25 02:34:04;;;;;;;;;4.00;1.75;;;;;8.21;66.49;99725.34;6296370;20;1807656;-44
2024/01/25 02:36:32;;;;;;;;;3.00;2.00;;;;;8.41;65.24;99714.53;6311894;20;2738957;-46
2024/01/25 02:39:00;;;;;;;;;2.00;2.00;;;;;8.43;65.10;99735.88;6311380;20;2744055;-46
2024/01/25 02:41:32;;;;;;;;;3.25;2.00;;;;;8.48;64.15;99729.31;6325250;20;1816711;-42
2024/01/25 02:44:01;;;;;;;;;4.00;2.00;;;;;8.34;64.92;99726.44;6310009;20;2754450;-44
2024/01/25 02:46:29;;;;;;;;;7.25;2.00;;;;;8.32;64.93;99722.97;6296071;20;1811882;-43
2024/01/25 02:48:58;;;;;;;;;4.75;0.50;;;;;8.33;64.68;99725.59;6327590;20;1810817;-45
2024/01/25 02:51:26;;;;;;;;;2.50;1.00;;;;;8.18;65.87;99739.75;6312636;20;2740934;-45
2024/01/25 02:53:54;;;;;;;;;2.00;1.00;;;;;8.33;65.01;99727.41;6325812;20;1819110;-43
2024/01/25 02:56:23;;;;;;;;;2.75;2.00;;;;;8.23;65.32;99723.47;6324835;20;1809731;-44
2024/01/25 02:58:51;;;;;;;;;5.00;2.00;;;;;8.27;64.34;99717.03;6309714;20;2746126;-45
2024/01/25 03:01:19;;;;;;;;;4.00;1.00;;;;;8.42;64.33;99718.06;6278279;20;2726310;-50
2024/01/25 03:03:48;;;;;;;;;5.50;2.00;;;;;8.43;63.60;99709.97;6327384;20;1812915;-44
2024/01/25 03:06:16;;;;;;;;;4.25;1.25;;;;;8.56;62.67;99705.69;6325130;20;1807303;-46
2024/01/25 03:08:45;;;;;;;;;3.00;1.00;;;;;8.63;62.25;99708.03;6325062;20;1803458;-48
2024/01/25 03:11:13;;;;;;;;;2.75;1.00;;;;;8.68;62.04;99714.00;6326115;20;1806681;-46
2024/01/25 03:13:42;;;;;;;;;3.50;1.75;;;;;8.52;62.95;99697.91;6326063;20;1813933;-47
2024/01/25 03:16:10;;;;;;;;;3.00;2.00;;;;;8.58;62.30;99700.25;6312505;20;2734627;-43
2024/01/25 03:18:38;;;;;;;;;1.00;1.00;;;;;8.67;62.01;99698.91;6325678;20;1809453;-43
2024/01/25 03:21:07;;;;;;;;;5.00;2.00;;;;;8.68;61.48;99698.81;6327375;20;1803442;-46
2024/01/25 03:23:36;;;;;;;;;4.50;1.50;;;;;8.54;62.69;99704.91;6325198;20;1809788;-46
2024/01/25 03:26:04;;;;;;;;;2.75;2.00;;;;;8.65;62.24;99684.75;6326161;20;1802072;-45
2024/01/25 03:28:39;;;;;;;;;3.50;1.25;;;;;8.60;62.38;99690.34;6325757;20;1809778;-46
2024/01/25 03:31:08;;;;;;;;;5.00;2.00;;;;;8.57;62.51;99694.03;6308615;20;2746159;-44
2024/01/25 03:33:36;;;;;;;;;3.50;2.00;;;;;8.66;61.86;99695.38;6292219;20;1808802;-44
2024/01/25 03:36:08;;;;;;;;;2.86;0.14;;;;;8.48;62.62;99691.00;6348737;20;2731570;-47
2024/01/25 03:38:37;;;;;;;;;3.00;2.00;;;;;8.63;62.51;99694.66;6332769;20;1810793;-47
2024/01/25 03:41:05;;;;;;;;;5.00;2.25;;;;;8.66;62.33;99698.06;6325004;20;1806377;-45
2024/01/25 03:43:34;;;;;;;;;5.50;2.75;;;;;8.71;61.85;99673.69;6321245;20;1805564;-45
2024/01/25 03:46:12;;;;;;;;;6.00;3.25;;;;;8.66;64.79;99682.00;6326062;20;1809768;-44
2024/01/25 03:48:41;;;;;;;;;4.50;1.00;;;;;8.83;63.30;99666.81;6324976;20;1811869;-44
2024/01/25 03:51:10;;;;;;;;;1.75;1.75;;;;;9.25;64.61;99686.81;6324461;20;1805616;-44
2024/01/25 03:53:39;;;;;;;;;2.25;2.00;;;;;8.95;63.80;99683.09;6325232;20;1809617;-46
2024/01/25 03:56:18;;;;;;;;;2.00;2.00;;;;;9.04;63.53;99680.84;6308023;20;2755511;-47
2024/01/25 03:58:46;;;;;;;;;2.00;2.00;;;;;8.93;63.35;99695.69;6277817;20;2739964;-46
2024/01/25 04:01:15;;;;;;;;;5.75;2.50;;;;;8.88;63.50;99683.50;6322811;20;1804555;-48
2024/01/25 04:03:44;;;;;;;;;1.50;0.75;;;;;8.87;63.43;99703.16;6323517;20;1811834;-46
2024/01/25 04:06:13;;;;;;;;;4.00;4.00;;;;;8.86;63.47;99712.16;6322222;20;1812899;-45
2024/01/25 04:08:40;;;;;;;;;3.50;2.00;;;;;8.81;63.57;99709.72;6310769;20;2754454;-43
2024/01/25 04:11:09;;;;;;;;;2.75;1.75;;;;;8.74;64.27;99713.69;6294353;20;1812967;-46
2024/01/25 04:13:38;;;;;;;;;5.00;3.50;;;;;8.84;63.50;99714.91;6322536;20;1814980;-45
2024/01/25 04:16:06;;;;;;;;;3.00;3.00;;;;;8.64;64.44;99701.75;6308536;20;2744062;-46
2024/01/25 04:18:34;;;;;;;;;3.00;2.00;;;;;8.71;64.66;99708.50;6279152;20;2744075;-45
2024/01/25 04:21:05;;;;;;;;;4.60;4.60;;;;;8.62;65.86;99709.84;6314440;20;2479413;-46
2024/01/25 04:23:34;;;;;;;;;14.00;9.00;;;;;8.56;65.93;99713.72;6309004;20;2762826;-44
2024/01/25 04:26:03;;;;;;;;;2.25;2.25;;;;;8.52;66.11;99711.28;6291783;20;1811739;-46
2024/01/25 04:28:30;;;;;;;;;5.00;3.50;;;;;8.55;66.47;99728.03;6309355;20;2749281;-45
2024/01/25 04:30:58;;;;;;;;;4.00;3.00;;;;;8.51;66.51;99710.44;6276618;20;2738863;-44
2024/01/25 04:33:26;;;;;;;;;15.00;11.00;;;;;8.55;66.04;99706.63;6278652;20;2782580;-46
2024/01/25 04:35:55;;;;;;;;;5.50;5.00;;;;;8.74;64.69;99711.00;6293887;20;1823322;-44
2024/01/25 04:38:23;;;;;;;;;5.50;5.50;;;;;8.53;65.89;99703.19;6306472;20;2756566;-46
2024/01/25 04:40:52;;;;;;;;;5.00;3.50;;;;;8.49;65.87;99709.63;6292979;20;1823326;-46
2024/01/25 04:43:19;;;;;;;;;8.00;8.00;;;;;8.68;64.35;99704.16;6306550;20;2767980;-45
2024/01/25 04:45:47;;;;;;;;;7.00;4.00;;;;;8.62;64.87;99703.66;6275089;20;2746156;-44
2024/01/25 04:48:15;;;;;;;;;5.00;5.00;;;;;8.53;65.17;99711.22;6278471;20;2748850;-45
2024/01/25 04:50:44;;;;;;;;;0.25;0.25;;;;;8.56;64.74;99715.53;6296028;20;1802368;-44
2024/01/25 04:53:12;;;;;;;;;5.00;3.50;;;;;8.55;65.04;99724.50;6308927;20;2744025;-44
2024/01/25 04:55:39;;;;;;;;;31.50;27.50;;;;;8.30;66.21;99715.06;6274527;20;2853411;-44
2024/01/25 04:58:09;;;;;;;;;4.80;3.60;;;;;8.39;65.83;99718.19;6299127;20;2747221;-48
2024/01/25 05:00:39;;;;;;;;;6.50;2.50;;;;;8.40;65.81;99710.13;6304262;20;2756593;-49
2024/01/25 05:03:07;;;;;;;;;7.00;2.00;;;;;8.45;65.37;99718.78;6275629;20;2756531;-48
2024/01/25 05:05:36;;;;;;;;;6.00;3.25;;;;;8.36;65.81;99727.25;6292507;20;1811885;-47
2024/01/25 05:08:04;;;;;;;;;3.00;3.00;;;;;8.35;66.16;99722.84;6308454;20;2756580;-45
2024/01/25 05:10:32;;;;;;;;;4.00;4.00;;;;;8.39;65.90;99732.47;6276140;20;2749230;-46
2024/01/25 05:13:00;;;;;;;;;5.00;2.00;;;;;8.50;65.12;99716.69;6275239;20;2756614;-46
2024/01/25 05:15:28;;;;;;;;;8.50;6.00;;;;;8.59;66.84;99719.88;6272963;20;2752385;-45
2024/01/25 05:17:56;;;;;;;;;10.00;6.00;;;;;8.66;69.67;99729.28;6275624;20;2768028;-43
2024/01/25 05:20:28;;;;;;;;;4.00;2.00;;;;;8.25;66.67;99718.91;6275250;20;2754470;-45
2024/01/25 05:23:04;;;;;;;;;4.57;3.86;;;;;8.50;67.13;99715.84;6318177;20;1797230;-45
2024/01/25 05:25:33;;;;;;;;;14.60;7.20;;;;;8.22;66.14;99719.09;6328916;20;2785821;-44
2024/01/25 05:28:02;;;;;;;;;7.00;4.50;;;;;8.26;66.33;99723.31;6278504;20;2748301;-47
2024/01/25 05:30:29;;;;;;;;;3.50;2.00;;;;;8.23;66.68;99728.81;6275104;20;2752341;-48
2024/01/25 05:32:57;;;;;;;;;10.50;6.00;;;;;8.31;65.91;99729.28;6273273;20;2769416;-43
2024/01/25 05:35:26;;;;;;;;;5.50;4.00;;;;;8.24;66.50;99741.25;6291862;20;1811887;-47
2024/01/25 05:37:54;;;;;;;;;5.50;4.00;;;;;8.23;66.11;99728.81;6308063;20;2752401;-45
2024/01/25 05:40:22;;;;;;;;;4.00;4.00;;;;;8.27;65.99;99733.09;6280314;20;2740917;-46
2024/01/25 05:42:51;;;;;;;;;4.00;4.00;;;;;8.12;66.64;99732.91;6325629;20;1811846;-44
2024/01/25 05:45:20;;;;;;;;;12.00;7.00;;;;;8.18;66.52;99741.56;6310947;20;2778447;-44
2024/01/25 05:47:50;;;;;;;;;2.00;1.25;;;;;8.19;66.21;99743.28;6297980;20;1814992;-43
2024/01/25 05:50:18;;;;;;;;;4.00;2.00;;;;;8.24;66.62;99751.94;6312569;20;2753464;-44
2024/01/25 05:52:46;;;;;;;;;8.50;5.50;;;;;7.90;68.02;99753.66;6280052;20;2744166;-44
2024/01/25 05:55:14;;;;;;;;;5.00;5.00;;;;;8.28;65.80;99764.22;6281384;20;2745118;-44
2024/01/25 05:57:47;;;;;;;;;7.00;5.00;;;;;8.13;66.64;99755.16;6280312;20;2747175;-45
2024/01/25 06:00:15;;;;;;;;;4.00;2.50;;;;;8.30;65.46;99765.03;6280268;20;2747313;-45
2024/01/25 06:02:48;;;;;;;;;10.50;4.00;;;;;8.20;66.18;99779.81;6277872;20;2763841;-45
2024/01/25 06:05:16;;;;;;;;;5.00;3.00;;;;;8.16;66.15;99780.88;6297809;20;1812811;-44
2024/01/25 06:07:44;;;;;;;;;5.00;3.00;;;;;7.95;67.25;99767.63;6310152;20;2738909;-45
2024/01/25 06:10:16;;;;;;;;;5.00;3.60;;;;;8.08;66.17;99766.09;6349478;20;2487894;-50
2024/01/25 06:12:44;;;;;;;;;4.00;3.00;;;;;8.16;66.77;99780.88;6310699;20;2705560;-46
2024/01/25 06:15:12;;;;;;;;;9.00;4.50;;;;;8.09;67.02;99781.19;6308409;20;2757574;-43
2024/01/25 06:17:40;;;;;;;;;2.00;2.00;;;;;8.16;66.49;99770.19;6280419;20;2756573;-44
2024/01/25 06:20:10;;;;;;;;;4.00;3.00;;;;;8.20;66.76;99777.97;6279125;20;2756525;-45
2024/01/25 06:22:38;;;;;;;;;7.00;6.00;;;;;8.06;67.66;99767.13;6279433;20;2742001;-45
2024/01/25 06:25:07;;;;;;;;;5.50;3.00;;;;;8.39;69.15;99775.28;6312689;20;2748314;-44
2024/01/25 06:27:36;;;;;;;;;5.75;4.00;;;;;8.26;69.11;99771.44;6296097;20;1812938;-45
2024/01/25 06:30:05;;;;;;;;;7.00;6.00;;;;;8.44;67.00;99765.19;6311717;20;2751409;-44
2024/01/25 06:32:33;;;;;;;;;7.50;5.00;;;;;8.31;67.51;99767.59;6278216;20;2750296;-46
2024/01/25 06:35:04;;;;;;;;;5.25;3.50;;;;;8.32;67.83;99771.13;6320808;20;2473270;-45
2024/01/25 06:37:33;;;;;;;;;3.25;3.00;;;;;8.52;68.51;99773.69;6296201;20;1825428;-46
2024/01/25 06:40:01;;;;;;;;;7.50;4.00;;;;;8.43;67.75;99762.63;6310584;20;2746103;-46
2024/01/25 06:42:31;;;;;;;;;7.00;4.00;;;;;8.44;66.24;99773.22;6278018;20;2759618;-45
2024/01/25 06:45:00;;;;;;;;;4.25;4.25;;;;;8.25;67.26;99772.41;6296246;20;1815027;-45
2024/01/25 06:47:29;;;;;;;;;7.25;5.25;;;;;8.04;68.56;99767.19;6327358;20;1819180;-44
2024/01/25 06:49:56;;;;;;;;;9.00;5.00;;;;;8.09;68.20;99769.66;6310013;20;2748006;-46
2024/01/25 06:52:25;;;;;;;;;6.75;3.75;;;;;8.17;68.48;99771.94;6296951;20;1809753;-49
2024/01/25 06:54:57;;;;;;;;;4.00;4.00;;;;;8.36;67.42;99762.03;6328794;20;1812886;-44
2024/01/25 06:57:24;;;;;;;;;6.00;3.00;;;;;8.25;67.90;99754.53;6310632;20;2752398;-45
2024/01/25 06:59:52;;;;;;;;;10.00;7.00;;;;;8.41;68.04;99767.19;6277556;20;2753524;-45
2024/01/25 07:02:20;;;;;;;;;4.50;4.50;;;;;8.46;67.78;99755.28;6281756;20;2752358;-43
2024/01/25 07:04:52;;;;;;;;;4.00;2.00;;;;;8.38;68.28;99768.16;6302345;20;2754472;-46
2024/01/25 07:07:21;;;;;;;;;4.00;3.00;;;;;9.70;63.50;99763.75;6314050;20;2737785;-44
2024/01/25 07:09:49;;;;;;;;;10.00;3.00;;;;;10.97;58.22;99772.31;6310213;20;2779549;-46
2024/01/25 07:12:17;;;;;;;;;4.00;2.00;;;;;11.17;56.66;99771.09;6297545;20;1814361;-47
2024/01/25 07:14:45;;;;;;;;;7.00;4.00;;;;;12.13;53.90;99786.50;6306906;20;2746183;-45
2024/01/25 07:17:13;;;;;;;;;6.00;3.50;;;;;12.81;53.52;99778.25;6280608;20;2744040;-44
2024/01/25 07:19:41;;;;;;;;;9.00;6.00;;;;;12.10;55.32;99775.94;6281847;20;2732574;-45
2024/01/25 07:22:09;;;;;;;;;4.50;4.00;;;;;11.45;55.11;99788.16;6281996;20;2737884;-47
2024/01/25 07:24:37;;;;;;;;;11.50;10.00;;;;;11.99;56.25;99773.97;6272276;20;2781589;-45
2024/01/25 07:27:05;;;;;;;;;4.50;4.00;;;;;11.35;54.85;99781.66;6282164;20;2741966;-46
2024/01/25 07:29:32;;;;;;;;;4.00;4.00;;;;;12.37;52.63;99778.63;6278327;20;2744054;-46
2024/01/25 07:32:01;;;;;;;;;9.00;7.00;;;;;11.83;54.55;99780.31;6278135;20;2758729;-46
2024/01/25 07:34:29;;;;;;;;;8.00;5.00;;;;;9.87;59.84;99760.97;6275528;20;2750264;-46
2024/01/25 07:36:57;;;;;;;;;5.00;3.50;;;;;9.47;61.87;99777.56;6279656;20;2752492;-44
2024/01/25 07:39:24;;;;;;;;;9.50;8.00;;;;;9.38;62.47;99778.97;6278221;20;2756552;-43
2024/01/25 07:41:52;;;;;;;;;9.00;6.00;;;;;9.29;63.27;99784.81;6278460;20;2743032;-48
2024/01/25 07:44:20;;;;;;;;;6.00;5.00;;;;;9.08;63.82;99784.16;6277048;20;2742991;-44
2024/01/25 07:46:48;;;;;;;;;7.50;7.00;;;;;9.07;64.58;99793.16;6280042;20;2740940;-47
2024/01/25 07:49:16;;;;;;;;;10.00;4.00;;;;;8.98;64.34;99806.09;6276133;20;2779546;-45
2024/01/25 07:51:44;;;;;;;;;5.50;4.00;;;;;8.98;65.26;99803.41;6277171;20;2754540;-47
2024/01/25 07:54:15;;;;;;;;;10.20;6.60;;;;;9.10;63.38;99806.38;6299095;20;2749245;-45
2024/01/25 07:56:43;;;;;;;;;4.00;4.00;;;;;9.33;63.25;99799.78;6307663;20;2756538;-46
2024/01/25 07:59:11;;;;;;;;;6.50;5.00;;;;;9.43;62.27;99809.91;6274973;20;2751324;-46
2024/01/25 08:01:38;;;;;;;;;6.00;6.00;;;;;9.67;61.12;99817.56;6276550;20;2732603;-47
2024/01/25 08:04:06;;;;;;;;;5.00;4.00;;;;;9.54;61.13;99813.81;6307228;20;3455544;-51
2024/01/25 08:06:34;;;;;;;;;6.00;5.00;;;;;9.62;59.40;99808.91;6312160;20;2742064;-48
2024/01/25 08:09:06;;;;;;;;;5.71;4.43;;;;;9.79;59.34;99806.13;6349979;20;1793747;-50
2024/01/25 08:11:35;;;;;;;;;7.75;4.25;;;;;9.84;59.83;99821.94;6327645;20;1811623;-48
2024/01/25 08:14:03;;;;;;;;;8.00;6.50;;;;;9.84;59.14;99822.81;6308081;20;2748256;-45
2024/01/25 08:16:31;;;;;;;;;14.00;7.50;;;;;9.99;59.00;99812.19;6275777;20;2768072;-47
2024/01/25 08:18:59;;;;;;;;;4.00;2.00;;;;;10.00;58.37;99814.75;6279574;20;2751391;-48
2024/01/25 08:21:27;;;;;;;;;7.00;5.50;;;;;10.14;57.92;99816.69;6277182;20;2739955;-50
2024/01/25 08:23:55;;;;;;;;;13.50;5.00;;;;;10.08;59.13;99811.63;6272287;20;2789895;-46
2024/01/25 08:26:23;;;;;;;;;6.50;4.00;;;;;10.13;58.27;99812.25;6277997;20;2752368;-49
2024/01/25 08:28:51;;;;;;;;;7.00;3.00;;;;;10.23;57.46;99808.06;6277553;20;2747296;-49
2024/01/25 08:31:19;;;;;;;;;6.50;4.00;;;;;10.49;59.57;99803.91;6276804;20;2748214;-46
2024/01/25 08:33:49;;;;;;;;;8.20;5.40;;;;;10.20;57.02;99805.56;6296501;20;2749293;-44
2024/01/25 08:36:19;;;;;;;;;6.00;5.00;;;;;10.44;55.79;99802.44;6309608;20;2750366;-48
2024/01/25 08:38:47;;;;;;;;;9.00;3.50;;;;;10.53;56.45;99808.13;6279137;20;2750315;-47
2024/01/25 08:41:16;;;;;;;;;6.00;4.50;;;;;10.47;54.40;99808.47;6282027;20;1817581;-47
2024/01/25 08:43:45;;;;;;;;;6.00;3.25;;;;;10.38;54.57;99813.56;6322733;20;1812944;-46
2024/01/25 08:46:15;;;;;;;;;5.00;4.00;;;;;10.57;54.54;99818.69;6307350;20;2754454;-47
2024/01/25 08:48:43;;;;;;;;;8.50;2.00;;;;;10.49;54.45;99808.41;6277312;20;2764899;-47
2024/01/25 08:51:12;;;;;;;;;5.00;3.50;;;;;10.51;52.86;99822.59;6278739;20;2746125;-46
2024/01/25 08:53:39;;;;;;;;;4.50;3.50;;;;;10.58;53.07;99826.63;6278942;20;2744053;-45
2024/01/25 08:56:07;;;;;;;;;2.00;2.00;;;;;10.58;52.07;99823.94;6274690;20;2750502;-46
2024/01/25 08:58:35;;;;;;;;;3.00;3.00;;;;;10.52;51.72;99810.91;6276674;20;2748263;-44
2024/01/25 09:01:03;;;;;;;;;3.50;3.00;;;;;10.55;51.32;99805.34;6274383;20;2756563;-49
2024/01/25 09:03:31;;;;;;;;;3.67;2.33;;;;;10.39;51.67;99826.88;6276951;20;2746192;-45
2024/01/25 09:06:05;;;;;;;;;2.00;2.00;;;;;10.60;50.88;99814.00;6277281;20;2754518;-45
2024/01/25 09:08:33;;;;;;;;;4.00;4.00;;;;;10.53;51.39;99818.88;6275722;20;2748272;-45
2024/01/25 09:11:01;;;;;;;;;4.50;3.00;;;;;10.72;51.00;99836.59;6277086;20;2746226;-43
2024/01/25 09:13:29;;;;;;;;;4.50;3.00;;;;;10.47;52.01;99835.31;6280458;20;2752359;-43
2024/01/25 09:15:57;;;;;;;;;8.50;4.00;;;;;10.63;50.98;99827.22;6282578;20;2750501;-45
2024/01/25 09:18:25;;;;;;;;;4.00;4.00;;;;;10.73;50.95;99847.22;6281940;20;2746162;-45
2024/01/25 09:20:55;;;;;;;;;1.75;1.75;;;;;10.74;51.44;99858.81;6297030;20;1809775;-44
2024/01/25 09:23:23;;;;;;;;;2.00;2.00;;;;;10.64;51.54;99847.78;6309694;20;2750276;-43
2024/01/25 09:25:51;;;;;;;;;4.00;2.50;;;;;11.10;52.00;99855.72;6282392;20;2754495;-42
2024/01/25 09:28:19;;;;;;;;;5.00;2.50;;;;;10.87;50.60;99857.13;6279315;20;2756282;-45
2024/01/25 09:30:48;;;;;;;;;3.00;2.00;;;;;10.92;50.51;99863.09;6286215;20;2739906;-44
2024/01/25 09:33:18;;;;;;;;;4.20;2.00;;;;;10.89;50.54;99870.47;6302949;20;2750366;-41
2024/01/25 09:35:47;;;;;;;;;7.00;4.00;;;;;11.57;52.76;99884.19;6312102;20;2754521;-41
2024/01/25 09:38:15;;;;;;;;;5.00;3.00;;;;;10.98;51.54;99875.31;6285219;20;2736749;-46
2024/01/25 09:40:43;;;;;;;;;10.00;7.00;;;;;11.02;50.85;99884.03;6283103;20;2761748;-40
2024/01/25 09:43:12;;;;;;;;;5.00;3.50;;;;;10.76;51.25;99892.69;6283047;20;2751812;-41
2024/01/25 09:45:41;;;;;;;;;6.00;3.00;;;;;10.97;52.10;99892.38;6280298;20;2749260;-43
2024/01/25 09:48:10;;;;;;;;;3.50;3.00;;;;;10.55;52.32;99876.00;6282112;20;2756583;-41
2024/01/25 09:50:40;;;;;;;;;6.50;5.00;;;;;10.68;51.46;99875.31;6282007;20;2756535;-43
2024/01/25 09:53:23;;;;;;;;;6.00;3.00;;;;;10.71;51.61;99875.97;6293767;20;1812922;-41
2024/01/25 09:56:08;;;;;;;;;7.50;2.00;;;;;11.02;51.13;99884.03;6311822;20;2751419;-43
2024/01/25 09:58:42;;;;;;;;;6.00;4.00;;;;;10.84;51.01;99896.75;6281715;20;2757033;-45
2024/01/25 10:01:12;;;;;;;;;4.00;3.00;;;;;10.73;52.05;99879.44;6279456;20;2753483;-44
2024/01/25 10:03:45;;;;;;;;;4.00;3.50;;;;;10.79;51.80;99888.09;6282771;20;2733612;-42
2024/01/25 10:06:15;;;;;;;;;4.00;3.00;;;;;10.69;52.01;99880.59;6279298;20;2746235;-43
2024/01/25 10:08:44;;;;;;;;;6.00;3.50;;;;;10.70;52.50;99890.38;6282668;20;2754522;-41
2024/01/25 10:11:12;;;;;;;;;4.50;4.50;;;;;10.87;52.75;99880.44;6281250;20;2747204;-43
2024/01/25 10:13:46;;;;;;;;;9.00;8.00;;;;;10.97;52.82;99876.25;6301756;20;2737806;-42
2024/01/25 10:16:19;;;;;;;;;8.50;6.00;;;;;11.26;53.17;99869.09;6314103;20;2750859;-41
2024/01/25 10:18:48;;;;;;;;;7.00;6.50;;;;;11.05;52.94;99863.22;6278520;20;2746147;-42
2024/01/25 10:21:18;;;;;;;;;14.50;10.00;;;;;11.01;52.07;99866.19;6277615;20;2785836;-44
2024/01/25 10:23:47;;;;;;;;;12.00;8.50;;;;;11.18;52.42;99860.66;6273891;20;2754498;-43
2024/01/25 10:26:17;;;;;;;;;6.00;4.00;;;;;11.10;53.36;99857.56;6284717;20;2748212;-43
2024/01/25 10:28:52;;;;;;;;;5.50;4.00;;;;;11.12;52.91;99864.56;6280951;20;2754468;-43
2024/01/25 10:31:29;;;;;;;;;9.50;4.00;;;;;11.12;51.38;99859.19;6280864;20;2769079;-42
2024/01/25 10:33:58;;;;;;;;;4.00;4.00;;;;;11.21;51.98;99868.50;6280494;20;2744036;-43
2024/01/25 10:36:26;;;;;;;;;6.00;4.00;;;;;11.28;50.63;99855.56;6279855;20;2748757;-42
2024/01/25 10:38:55;;;;;;;;;8.00;2.00;;;;;11.21;50.99;99842.50;6281096;20;2744093;-42
2024/01/25 10:41:25;;;;;;;;;7.00;4.00;;;;;11.11;50.83;99851.22;6278882;20;2747150;-42
2024/01/25 10:43:56;;;;;;;;;4.25;2.75;;;;;11.02;51.57;99863.41;6298901;20;1808617;-44
2024/01/25 10:46:26;;;;;;;;;4.00;3.00;;;;;11.33;50.46;99872.28;6310452;20;2741977;-42
2024/01/25 10:48:59;;;;;;;;;8.00;4.00;;;;;11.28;50.76;99874.38;6276836;20;2751359;-43
2024/01/25 10:51:28;;;;;;;;;10.00;5.00;;;;;11.28;49.37;99859.13;6276545;20;2768115;-42
2024/01/25 10:53:58;;;;;;;;;4.50;3.00;;;;;11.56;49.11;99871.72;6278990;20;2748693;-43
2024/01/25 10:56:26;;;;;;;;;7.00;5.00;;;;;12.02;48.79;99860.75;6278808;20;2748289;-42
2024/01/25 10:58:54;;;;;;;;;6.00;6.00;;;;;11.70;48.67;99872.69;6279727;20;2747171;-44
2024/01/25 11:01:23;;;;;;;;;6.50;3.00;;;;;11.94;48.25;99857.69;6276089;20;2732635;-44
2024/01/25 11:03:51;;;;;;;;;4.00;3.00;;;;;11.53;48.07;99871.91;6278829;20;2689967;-42
2024/01/25 11:06:24;;;;;;;;;8.00;3.00;;;;;11.26;48.91;99863.72;6280763;20;2748355;-43
2024/01/25 11:09:05;;;;;;;;;6.00;3.00;;;;;10.95;49.93;99879.03;6297277;20;1805602;-44
2024/01/25 11:11:37;;;;;;;;;3.00;3.00;;;;;10.95;50.14;99878.16;6311861;20;2739933;-45
2024/01/25 11:14:04;;;;;;;;;3.00;3.00;;;;;10.83;50.08;99858.28;6275823;20;3458574;-46
2024/01/25 11:16:38;;;;;;;;;6.00;5.00;;;;;11.05;50.77;99873.97;6278141;20;2748297;-47
2024/01/25 11:19:06;;;;;;;;;5.00;4.00;;;;;10.98;51.35;99862.72;6289007;20;2747243;-46
2024/01/25 11:21:53;;;;;;;;;9.00;6.00;;;;;10.80;51.06;99858.47;6276035;20;2752369;-43
2024/01/25 11:24:29;;;;;;;;;6.00;4.00;;;;;10.48;50.99;99857.69;6277902;20;2751371;-44
2024/01/25 11:26:57;;;;;;;;;9.00;6.00;;;;;10.86;51.15;99867.97;6279494;20;2738826;-43
2024/01/25 11:29:27;;;;;;;;;8.50;5.00;;;;;10.74;51.86;99864.19;6279075;20;2758614;-44
2024/01/25 11:31:54;;;;;;;;;5.50;4.00;;;;;10.56;51.39;99874.22;6278574;20;2746179;-45